Cincinnati, Ohio
Traffic Map
Current Weather Conditions
Cincinnati, Ohio
Clear
Clear
83°
Feels Like: 88°
Wind Chill: 83° Ceiling: Unl
Heat Index: 88° Visibility: 10mi
Dew Point: 72° Wind: 0mph
Humidity: 69% Direction: ° ()
Pressure: 30.04in Gusts: 0mph
Raw Report DataKLUK 261353Z 00000KT 10SM CLR 28/22 A3004 RMK AO2 SLP166 T02830222
Traffic Incident Summary
Active as of:
Severity:
Category:
InformationThere was an issue retrieving the traffic information for this location. Please try a different location or try again shortly.
Advertisements
Track Severe Weather on mobile